Time;durP1;ratioP1;P1;durP2;ratioP2;P2;SDS_P1;SDS_P2;PMS_P1;PMS_P2;Temp;Humidity;BMP_temperature;BMP_pressure;BME280_temperature;BME280_humidity;BME280_pressure;Samples;Min_cycle;Max_cycle;Signal;HPM_P1;HPM_P2
2024/01/21 00:05:54;;;;;;;14.00;10.70;;;;;;;-1.03;100.00;100683.20;432793;1259;140997;-61
2024/01/21 00:15:59;;;;;;;;;;;;;;;-1.03;100.00;100698.84;433126;1256;140746;-60
2024/01/21 00:26:05;;;;;;;12.70;8.80;;;;;;;-1.03;100.00;100711.04;433263;1256;126241;-61
2024/01/21 00:36:12;;;;;;;15.60;10.40;;;;;;;-1.04;100.00;100721.70;434251;1259;140876;-60
2024/01/21 00:46:17;;;;;;;16.00;10.00;;;;;;;-1.04;100.00;100717.05;432703;1257;141075;-61
2024/01/21 00:56:23;;;;;;;16.10;10.60;;;;;;;-1.04;100.00;100719.63;433030;1256;140411;-61
2024/01/21 01:06:29;;;;;;;16.40;10.40;;;;;;;-1.03;100.00;100725.13;432658;1260;140372;-62
2024/01/21 01:16:39;;;;;;;20.70;10.60;;;;;;;-1.05;100.00;100732.02;432585;1256;140444;-61
2024/01/21 01:26:45;;;;;;;15.80;11.70;;;;;;;-1.06;100.00;100749.20;434823;1256;140317;-61
2024/01/21 01:36:51;;;;;;;12.30;9.30;;;;;;;-1.06;100.00;100760.88;432763;1256;140062;-61
2024/01/21 01:46:57;;;;;;;16.10;9.70;;;;;;;-1.07;100.00;100771.70;432699;1259;140525;-62
2024/01/21 01:57:04;;;;;;;17.40;10.60;;;;;;;-1.11;100.00;100780.11;432648;1256;140320;-62
2024/01/21 02:07:10;;;;;;;16.50;11.20;;;;;;;-1.21;100.00;100785.58;432902;1256;140136;-60
2024/01/21 02:17:15;;;;;;;14.90;10.40;;;;;;;-1.30;100.00;100794.31;432874;1256;140495;-61
2024/01/21 02:27:21;;;;;;;16.40;8.80;;;;;;;-1.35;100.00;100799.42;432710;1256;334016;-62
2024/01/21 02:37:27;;;;;;;16.50;11.10;;;;;;;-1.38;100.00;100798.91;433004;1256;141435;-61
2024/01/21 02:47:33;;;;;;;15.70;10.50;;;;;;;-1.43;100.00;100813.32;432972;1256;140222;-61
2024/01/21 02:57:38;;;;;;;15.30;10.40;;;;;;;-1.48;100.00;100812.42;432900;1256;140372;-61
2024/01/21 03:07:44;;;;;;;13.80;9.30;;;;;;;-1.49;100.00;100814.30;433266;1256;143325;-61
2024/01/21 03:17:50;;;;;;;14.60;10.20;;;;;;;-1.50;100.00;100823.92;432792;1256;140871;-62
2024/01/21 03:27:56;;;;;;;16.40;11.40;;;;;;;-1.55;100.00;100822.52;432984;1260;140592;-62
2024/01/21 03:38:02;;;;;;;14.70;10.10;;;;;;;-1.59;100.00;100838.30;433056;1259;141582;-62
2024/01/21 03:48:07;;;;;;;;;;;;;;;-1.62;100.00;100840.68;432862;1256;140785;-62
2024/01/21 03:58:13;;;;;;;13.20;9.20;;;;;;;-1.59;100.00;100840.18;434137;1259;127416;-62
2024/01/21 04:08:19;;;;;;;15.20;9.90;;;;;;;-1.57;100.00;100849.48;432753;1261;140200;-62
2024/01/21 04:18:24;;;;;;;23.40;17.10;;;;;;;-1.56;100.00;100846.05;432757;1259;140873;-61
2024/01/21 04:28:30;;;;;;;16.80;12.10;;;;;;;-1.55;100.00;100859.80;432833;1260;141185;-62
2024/01/21 04:38:36;;;;;;;21.20;14.60;;;;;;;-1.56;100.00;100867.33;432986;1260;141358;-63
2024/01/21 04:48:42;;;;;;;16.50;13.50;;;;;;;-1.53;100.00;100875.43;432882;1260;140131;-61
2024/01/21 04:58:48;;;;;;;18.60;13.00;;;;;;;-1.54;100.00;100870.96;432826;1260;141048;-62
2024/01/21 05:08:54;;;;;;;19.80;15.50;;;;;;;-1.53;100.00;100873.20;432846;1256;140920;-61
2024/01/21 05:19:00;;;;;;;20.50;14.70;;;;;;;-1.52;100.00;100869.07;433186;1259;139941;-61
2024/01/21 05:29:06;;;;;;;21.90;14.60;;;;;;;-1.51;100.00;100873.55;433402;1259;140232;-61
2024/01/21 05:39:13;;;;;;;25.70;16.10;;;;;;;-1.50;100.00;100877.68;433503;1256;139689;-61
2024/01/21 05:49:19;;;;;;;25.90;17.90;;;;;;;-1.49;100.00;100890.41;433826;1259;139796;-61
2024/01/21 05:59:25;;;;;;;23.50;15.50;;;;;;;-1.48;100.00;100891.95;433175;1260;140202;-61
2024/01/21 06:09:31;;;;;;;22.50;15.40;;;;;;;-1.47;100.00;100893.50;433618;1259;142366;-62
2024/01/21 06:19:37;;;;;;;17.30;13.20;;;;;;;-1.46;100.00;100898.66;433682;1260;140876;-59
2024/01/21 06:29:45;;;;;;;19.20;13.30;;;;;;;-1.46;100.00;100902.09;433295;1260;140247;-60
2024/01/21 06:39:51;;;;;;;16.30;12.30;;;;;;;-1.44;100.00;100912.94;433934;1260;140272;-61
2024/01/21 06:50:09;;;;;;;19.70;13.90;;;;;;;-1.42;100.00;100915.52;433077;1260;140378;-61
2024/01/21 07:00:17;;;;;;;22.70;13.80;;;;;;;-1.38;100.00;100919.67;435613;1260;140531;-60
2024/01/21 07:10:23;;;;;;;18.10;11.70;;;;;;;-1.32;100.00;100924.86;434035;1260;139935;-61
2024/01/21 07:20:29;;;;;;;14.00;11.50;;;;;;;-1.25;100.00;100929.38;433268;1258;140233;-61
2024/01/21 07:30:35;;;;;;;16.60;10.60;;;;;;;-1.15;100.00;100932.17;432851;1260;140190;-60
2024/01/21 07:40:41;;;;;;;22.10;13.10;;;;;;;-1.04;100.00;100936.72;433337;1260;140213;-61
2024/01/21 07:50:48;;;;;;;15.70;13.40;;;;;;;-0.89;100.00;100948.30;432762;1260;140517;-61
2024/01/21 08:00:54;;;;;;;22.90;15.20;;;;;;;-0.76;100.00;100958.69;432769;1260;140356;-61
2024/01/21 08:11:00;;;;;;;23.70;15.30;;;;;;;-0.65;100.00;100965.79;432590;1258;140625;-62
2024/01/21 08:21:06;;;;;;;23.00;14.20;;;;;;;-0.55;100.00;100974.09;432709;1260;141720;-61
2024/01/21 08:31:10;;;;;;;;;;;;;;;-0.43;100.00;100973.79;433645;1260;141082;-62
2024/01/21 08:41:16;;;;;;;21.40;14.70;;;;;;;-0.18;100.00;100971.45;432695;1257;127135;-62
2024/01/21 08:51:22;;;;;;;22.40;14.10;;;;;;;-0.02;100.00;100964.79;432935;1257;140966;-61
2024/01/21 09:01:28;;;;;;;19.00;15.30;;;;;;;0.25;100.00;100967.23;432857;1257;141264;-62
2024/01/21 09:11:34;;;;;;;23.80;15.60;;;;;;;0.64;100.00;100977.05;432572;1257;140013;-61
2024/01/21 09:21:40;;;;;;;21.80;14.10;;;;;;;1.05;100.00;100968.55;432558;1260;141204;-61
2024/01/21 09:31:55;;;;;;;21.40;14.90;;;;;;;1.21;100.00;100965.22;432679;1257;140284;-62
2024/01/21 09:42:06;;;;;;;19.20;14.00;;;;;;;1.47;100.00;100952.35;434163;1260;142244;-60
2024/01/21 09:52:12;;;;;;;19.90;14.50;;;;;;;1.48;100.00;100949.59;432674;1260;145366;-61
2024/01/21 10:02:18;;;;;;;21.00;12.60;;;;;;;1.70;100.00;100950.69;432776;1260;142977;-61
2024/01/21 10:12:25;;;;;;;21.10;15.20;;;;;;;1.85;100.00;100948.36;434458;1257;140170;-61
2024/01/21 10:22:31;;;;;;;28.10;18.70;;;;;;;1.95;100.00;100945.02;432557;1260;140807;-60
2024/01/21 10:32:38;;;;;;;18.00;12.20;;;;;;;1.93;100.00;100931.55;432672;1260;139679;-60
2024/01/21 10:42:45;;;;;;;17.50;12.60;;;;;;;1.83;100.00;100926.45;434056;1257;141113;-62
2024/01/21 10:52:52;;;;;;;19.10;12.00;;;;;;;1.82;100.00;100923.52;432705;1258;140065;-60
2024/01/21 11:03:25;;;;;;;22.70;13.90;;;;;;;1.82;100.00;100919.02;432817;1260;140568;-62
2024/01/21 11:13:52;;;;;;;17.30;12.40;;;;;;;1.80;100.00;100919.72;432802;1259;139892;-62
2024/01/21 11:24:02;;;;;;;18.30;12.50;;;;;;;1.92;100.00;100918.42;432871;1258;141443;-60
2024/01/21 11:34:12;;;;;;;20.20;12.70;;;;;;;2.04;100.00;100912.65;432840;1257;141400;-60
2024/01/21 11:44:23;;;;;;;19.30;12.40;;;;;;;2.10;100.00;100893.60;439393;1255;140338;-60
2024/01/21 11:54:36;;;;;;;16.30;11.50;;;;;;;2.27;100.00;100878.23;446203;1258;140495;-60
2024/01/21 12:04:45;;;;;;;20.60;13.40;;;;;;;2.42;100.00;100874.48;434722;1257;142198;-60
2024/01/21 12:14:52;;;;;;;17.10;11.40;;;;;;;2.57;100.00;100855.49;442477;1256;140193;-61
2024/01/21 12:25:01;;;;;;;17.50;10.40;;;;;;;2.78;100.00;100849.73;432932;1256;140525;-60
2024/01/21 12:35:09;;;;;;;19.30;11.80;;;;;;;3.00;100.00;100847.41;432797;1259;139966;-59
2024/01/21 12:45:15;;;;;;;14.50;9.80;;;;;;;3.01;100.00;100843.60;441028;1255;141012;-57
2024/01/21 12:55:21;;;;;;;18.90;10.80;;;;;;;2.96;100.00;100838.29;432866;1258;139907;-57
2024/01/21 13:05:26;;;;;;;16.40;10.30;;;;;;;2.87;100.00;100824.38;432748;1260;142112;-58
2024/01/21 13:15:32;;;;;;;15.00;10.60;;;;;;;2.69;100.00;100833.41;432694;1257;141214;-58
2024/01/21 13:25:38;;;;;;;18.60;11.50;;;;;;;2.65;100.00;100828.63;432964;1260;141526;-58
2024/01/21 13:35:45;;;;;;;19.60;13.70;;;;;;;2.57;100.00;100820.23;432787;1256;141339;-59
2024/01/21 13:45:51;;;;;;;19.20;12.50;;;;;;;2.20;99.62;100813.88;433293;1257;140771;-59
2024/01/21 13:55:56;;;;;;;18.40;12.80;;;;;;;1.65;99.33;100803.63;434919;1259;140331;-60
2024/01/21 14:06:03;;;;;;;22.30;12.40;;;;;;;1.30;99.78;100788.19;432869;1257;141176;-58
2024/01/21 14:16:09;;;;;;;25.10;15.70;;;;;;;1.15;100.00;100780.84;432771;1260;140999;-58
2024/01/21 14:26:16;;;;;;;27.40;16.90;;;;;;;0.96;100.00;100779.05;432810;1257;140342;-58
2024/01/21 14:36:22;;;;;;;31.40;19.50;;;;;;;0.76;100.00;100781.91;432682;1256;140813;-59
2024/01/21 14:46:28;;;;;;;30.40;20.80;;;;;;;0.55;100.00;100773.20;432829;1256;141060;-58
2024/01/21 14:56:34;;;;;;;33.20;21.60;;;;;;;0.31;100.00;100760.88;433453;1257;140272;-59
2024/01/21 15:06:39;;;;;;;31.70;22.00;;;;;;;0.11;100.00;100753.85;433293;1258;140081;-58
2024/01/21 15:16:45;;;;;;;35.00;22.10;;;;;;;-0.10;100.00;100729.96;432937;1260;140147;-60
2024/01/21 15:26:51;;;;;;;35.30;26.60;;;;;;;-0.35;100.00;100704.52;433123;1258;139795;-59
2024/01/21 15:36:57;;;;;;;48.60;29.60;;;;;;;-0.57;100.00;100698.34;432866;1257;141367;-60
2024/01/21 15:47:02;;;;;;;;;;;;;;;-0.73;100.00;100689.23;432999;1255;141470;-60
2024/01/21 15:57:08;;;;;;;34.50;25.80;;;;;;;-0.80;100.00;100694.55;432833;1259;127053;-59
2024/01/21 16:07:17;;;;;;;40.90;25.60;;;;;;;-0.82;100.00;100693.70;432698;1257;140018;-59
2024/01/21 16:17:24;;;;;;;37.30;27.10;;;;;;;-0.81;100.00;100703.50;433740;1256;141395;-60
2024/01/21 16:27:30;;;;;;;38.00;26.70;;;;;;;-0.76;100.00;100692.50;432753;1256;140584;-59
2024/01/21 16:37:38;;;;;;;36.00;24.30;;;;;;;-0.65;100.00;100679.08;433216;1256;141395;-59
2024/01/21 16:47:44;;;;;;;39.00;23.90;;;;;;;-0.56;100.00;100653.63;432989;1257;140939;-62
2024/01/21 16:57:50;;;;;;;35.40;22.40;;;;;;;-0.46;100.00;100656.55;432741;1256;141525;-58
2024/01/21 17:07:56;;;;;;;39.50;23.40;;;;;;;-0.41;100.00;100636.23;434109;1256;140846;-59
2024/01/21 17:18:16;;;;;;;38.30;25.30;;;;;;;-0.38;100.00;100655.33;432407;1256;140465;-59
2024/01/21 17:28:22;;;;;;;40.00;22.00;;;;;;;-0.37;100.00;100656.35;435247;1258;141856;-64
2024/01/21 17:38:28;;;;;;;25.90;17.00;;;;;;;-0.37;100.00;100580.98;432764;1255;141588;-65
2024/01/21 17:48:34;;;;;;;32.00;23.50;;;;;;;-0.37;100.00;100606.46;433466;1258;142024;-63
2024/01/21 17:58:40;;;;;;;37.70;23.10;;;;;;;-0.45;100.00;100598.73;432748;1260;140011;-64
2024/01/21 18:08:46;;;;;;;34.20;22.20;;;;;;;-0.54;100.00;100603.73;433197;1259;140272;-64
2024/01/21 18:18:53;;;;;;;32.00;22.10;;;;;;;-0.57;100.00;100595.66;433319;1256;141364;-64
2024/01/21 18:28:59;;;;;;;36.00;23.60;;;;;;;-0.61;100.00;100579.50;433891;1255;142797;-62
2024/01/21 18:39:26;;;;;;;37.60;24.60;;;;;;;-0.69;100.00;100576.24;432842;1259;141217;-65
2024/01/21 18:49:32;;;;;;;36.60;24.30;;;;;;;-0.80;100.00;100560.11;433661;1260;141610;-61
2024/01/21 18:59:42;;;;;;;31.30;21.50;;;;;;;-0.90;100.00;100528.66;434038;1256;141530;-63
2024/01/21 19:09:48;;;;;;;36.80;23.70;;;;;;;-1.01;100.00;100531.77;433447;1257;141433;-63
2024/01/21 19:19:56;;;;;;;33.80;22.00;;;;;;;-1.27;100.00;100531.45;432761;1256;142760;-59
2024/01/21 19:30:02;;;;;;;33.20;23.60;;;;;;;-1.58;100.00;100519.07;437830;1255;141510;-59
2024/01/21 19:40:10;;;;;;;33.50;22.10;;;;;;;-1.86;100.00;100487.78;432656;1260;141294;-58
2024/01/21 19:50:16;;;;;;;35.30;23.00;;;;;;;-2.10;100.00;100491.52;437919;1256;141579;-60
2024/01/21 20:00:22;;;;;;;38.90;24.90;;;;;;;-2.28;100.00;100476.36;432519;1258;142336;-59
2024/01/21 20:10:28;;;;;;;33.60;22.00;;;;;;;-2.36;100.00;100460.55;432611;1260;142615;-59
2024/01/21 20:20:34;;;;;;;35.30;23.80;;;;;;;-2.41;100.00;100450.60;432865;1257;140484;-59
2024/01/21 20:30:40;;;;;;;34.90;21.10;;;;;;;-2.41;100.00;100435.52;432766;1256;141902;-59
2024/01/21 20:40:45;;;;;;;23.20;17.10;;;;;;;-2.39;100.00;100426.42;432423;1259;141540;-59
2024/01/21 20:50:51;;;;;;;22.40;15.70;;;;;;;-2.39;100.00;100418.88;432561;1260;141892;-58
2024/01/21 21:00:57;;;;;;;24.10;14.00;;;;;;;-2.37;100.00;100411.70;432979;1256;141292;-59
2024/01/21 21:11:17;;;;;;;22.30;13.30;;;;;;;-2.39;100.00;100423.86;432644;1260;140895;-59
2024/01/21 21:21:23;;;;;;;19.40;12.10;;;;;;;-2.35;100.00;100425.06;432734;1259;140607;-58
2024/01/21 21:31:29;;;;;;;20.40;12.80;;;;;;;-2.31;100.00;100412.04;433000;1260;141439;-60
2024/01/21 21:41:35;;;;;;;21.80;11.30;;;;;;;-2.31;100.00;100402.27;432973;1256;140536;-59
2024/01/21 21:51:40;;;;;;;17.40;10.10;;;;;;;-2.35;100.00;100403.45;438632;1260;140523;-58
2024/01/21 22:01:46;;;;;;;12.00;8.40;;;;;;;-2.40;100.00;100391.77;432803;1260;144275;-59
2024/01/21 22:11:53;;;;;;;15.40;10.30;;;;;;;-2.45;99.90;100405.66;434077;1260;142782;-58
2024/01/21 22:21:59;;;;;;;13.20;8.80;;;;;;;-2.40;99.77;100402.77;433656;1256;140267;-58
2024/01/21 22:32:07;;;;;;;11.80;6.50;;;;;;;-2.31;99.11;100413.06;433202;1260;141039;-60
2024/01/21 22:42:13;;;;;;;11.00;7.60;;;;;;;-2.29;98.65;100407.06;434240;1260;140919;-60
2024/01/21 22:52:22;;;;;;;15.00;7.40;;;;;;;-2.27;98.05;100395.23;432797;1256;140985;-59
2024/01/21 23:02:28;;;;;;;10.20;6.80;;;;;;;-2.15;97.89;100380.16;432793;1260;139907;-59
2024/01/21 23:12:34;;;;;;;10.00;8.10;;;;;;;-2.01;97.75;100365.59;432623;1259;140642;-60
2024/01/21 23:22:39;;;;;;;13.80;6.10;;;;;;;-1.87;96.96;100357.69;432781;1258;140003;-60
2024/01/21 23:32:45;;;;;;;9.50;6.90;;;;;;;-1.73;96.41;100356.47;433238;1258;140685;-58
2024/01/21 23:42:52;;;;;;;6.20;4.50;;;;;;;-1.63;95.81;100348.38;432984;1256;140954;-58
2024/01/21 23:52:58;;;;;;;6.70;4.70;;;;;;;-1.56;95.29;100330.86;433146;1259;141064;-60
